sensor_id;sensor_type;location;lat;lon;timestamp;P1;durP1;ratioP1;P2;durP2;ratioP2
23270;SDS011;11804;51.118;17.058;2023-04-06T00:02:12;74.40;;;40.83;;
23270;SDS011;11804;51.118;17.058;2023-04-06T00:04:40;73.87;;;41.80;;
23270;SDS011;11804;51.118;17.058;2023-04-06T00:07:08;73.70;;;41.60;;
23270;SDS011;11804;51.118;17.058;2023-04-06T00:09:36;77.27;;;42.17;;
23270;SDS011;11804;51.118;17.058;2023-04-06T00:12:03;78.77;;;42.07;;
23270;SDS011;11804;51.118;17.058;2023-04-06T00:14:32;84.47;;;44.57;;
23270;SDS011;11804;51.118;17.058;2023-04-06T00:17:00;77.23;;;43.43;;
23270;SDS011;11804;51.118;17.058;2023-04-06T00:19:27;91.17;;;46.27;;
23270;SDS011;11804;51.118;17.058;2023-04-06T00:21:55;80.70;;;44.43;;
23270;SDS011;11804;51.118;17.058;2023-04-06T00:24:22;81.20;;;43.60;;
23270;SDS011;11804;51.118;17.058;2023-04-06T00:26:51;79.20;;;43.43;;
23270;SDS011;11804;51.118;17.058;2023-04-06T00:29:19;75.83;;;41.23;;
23270;SDS011;11804;51.118;17.058;2023-04-06T00:31:47;85.37;;;46.13;;
23270;SDS011;11804;51.118;17.058;2023-04-06T00:34:14;79.20;;;43.03;;
23270;SDS011;11804;51.118;17.058;2023-04-06T00:36:42;99.33;;;53.33;;
23270;SDS011;11804;51.118;17.058;2023-04-06T00:39:09;95.87;;;52.17;;
23270;SDS011;11804;51.118;17.058;2023-04-06T00:41:37;95.23;;;52.00;;
23270;SDS011;11804;51.118;17.058;2023-04-06T00:44:07;102.60;;;53.20;;
23270;SDS011;11804;51.118;17.058;2023-04-06T00:46:35;96.87;;;51.93;;
23270;SDS011;11804;51.118;17.058;2023-04-06T00:49:03;101.90;;;53.33;;
23270;SDS011;11804;51.118;17.058;2023-04-06T00:51:30;95.67;;;52.47;;
23270;SDS011;11804;51.118;17.058;2023-04-06T00:53:58;103.77;;;53.50;;
23270;SDS011;11804;51.118;17.058;2023-04-06T00:56:26;92.73;;;51.77;;
23270;SDS011;11804;51.118;17.058;2023-04-06T00:58:53;95.23;;;52.07;;
23270;SDS011;11804;51.118;17.058;2023-04-06T01:01:22;96.60;;;51.57;;
23270;SDS011;11804;51.118;17.058;2023-04-06T01:03:51;91.30;;;49.30;;
23270;SDS011;11804;51.118;17.058;2023-04-06T01:06:20;85.57;;;47.33;;
23270;SDS011;11804;51.118;17.058;2023-04-06T01:08:47;90.40;;;49.83;;
23270;SDS011;11804;51.118;17.058;2023-04-06T01:11:15;88.00;;;49.63;;
23270;SDS011;11804;51.118;17.058;2023-04-06T01:13:44;89.67;;;45.90;;
23270;SDS011;11804;51.118;17.058;2023-04-06T01:16:11;76.47;;;44.50;;
23270;SDS011;11804;51.118;17.058;2023-04-06T01:18:39;80.87;;;44.80;;
23270;SDS011;11804;51.118;17.058;2023-04-06T01:21:16;77.50;;;43.47;;
23270;SDS011;11804;51.118;17.058;2023-04-06T01:23:48;79.13;;;43.90;;
23270;SDS011;11804;51.118;17.058;2023-04-06T01:26:13;76.47;;;43.10;;
23270;SDS011;11804;51.118;17.058;2023-04-06T01:28:41;82.10;;;44.80;;
23270;SDS011;11804;51.118;17.058;2023-04-06T01:31:10;81.53;;;43.83;;
23270;SDS011;11804;51.118;17.058;2023-04-06T01:33:37;79.90;;;44.37;;
23270;SDS011;11804;51.118;17.058;2023-04-06T01:36:05;79.40;;;43.97;;
23270;SDS011;11804;51.118;17.058;2023-04-06T01:38:33;79.57;;;43.73;;
23270;SDS011;11804;51.118;17.058;2023-04-06T01:41:01;77.07;;;43.60;;
23270;SDS011;11804;51.118;17.058;2023-04-06T01:43:29;73.33;;;41.37;;
23270;SDS011;11804;51.118;17.058;2023-04-06T01:45:57;77.77;;;43.37;;
23270;SDS011;11804;51.118;17.058;2023-04-06T01:48:25;79.03;;;44.83;;
23270;SDS011;11804;51.118;17.058;2023-04-06T01:50:53;70.73;;;42.40;;
23270;SDS011;11804;51.118;17.058;2023-04-06T01:53:21;70.17;;;40.70;;
23270;SDS011;11804;51.118;17.058;2023-04-06T01:55:49;74.70;;;43.07;;
23270;SDS011;11804;51.118;17.058;2023-04-06T01:58:16;79.90;;;44.40;;
23270;SDS011;11804;51.118;17.058;2023-04-06T02:00:44;86.17;;;45.10;;
23270;SDS011;11804;51.118;17.058;2023-04-06T02:03:11;76.23;;;44.30;;
23270;SDS011;11804;51.118;17.058;2023-04-06T02:05:40;84.80;;;44.60;;
23270;SDS011;11804;51.118;17.058;2023-04-06T02:08:08;75.37;;;43.40;;
23270;SDS011;11804;51.118;17.058;2023-04-06T02:10:36;83.70;;;44.73;;
23270;SDS011;11804;51.118;17.058;2023-04-06T02:13:03;79.77;;;45.43;;
23270;SDS011;11804;51.118;17.058;2023-04-06T02:15:31;81.60;;;44.63;;
23270;SDS011;11804;51.118;17.058;2023-04-06T02:17:58;77.63;;;44.13;;
23270;SDS011;11804;51.118;17.058;2023-04-06T02:20:26;81.10;;;45.13;;
23270;SDS011;11804;51.118;17.058;2023-04-06T02:22:56;77.13;;;44.17;;
23270;SDS011;11804;51.118;17.058;2023-04-06T02:25:23;77.30;;;43.17;;
23270;SDS011;11804;51.118;17.058;2023-04-06T02:27:51;75.23;;;39.73;;
23270;SDS011;11804;51.118;17.058;2023-04-06T02:30:18;62.07;;;35.90;;
23270;SDS011;11804;51.118;17.058;2023-04-06T02:32:46;64.57;;;37.27;;
23270;SDS011;11804;51.118;17.058;2023-04-06T02:35:13;70.20;;;39.63;;
23270;SDS011;11804;51.118;17.058;2023-04-06T02:37:41;67.07;;;39.60;;
23270;SDS011;11804;51.118;17.058;2023-04-06T02:40:09;65.67;;;38.40;;
23270;SDS011;11804;51.118;17.058;2023-04-06T02:42:37;68.50;;;38.73;;
23270;SDS011;11804;51.118;17.058;2023-04-06T02:45:05;65.47;;;37.97;;
23270;SDS011;11804;51.118;17.058;2023-04-06T02:47:33;67.40;;;38.87;;
23270;SDS011;11804;51.118;17.058;2023-04-06T02:50:01;63.27;;;38.93;;
23270;SDS011;11804;51.118;17.058;2023-04-06T02:52:29;68.40;;;40.27;;
23270;SDS011;11804;51.118;17.058;2023-04-06T02:54:56;67.00;;;39.00;;
23270;SDS011;11804;51.118;17.058;2023-04-06T02:57:24;69.17;;;39.37;;
23270;SDS011;11804;51.118;17.058;2023-04-06T02:59:51;68.00;;;39.17;;
23270;SDS011;11804;51.118;17.058;2023-04-06T03:02:19;70.00;;;39.67;;
23270;SDS011;11804;51.118;17.058;2023-04-06T03:04:46;65.43;;;38.80;;
23270;SDS011;11804;51.118;17.058;2023-04-06T03:07:14;70.93;;;39.70;;
23270;SDS011;11804;51.118;17.058;2023-04-06T03:09:42;69.70;;;42.47;;
23270;SDS011;11804;51.118;17.058;2023-04-06T03:12:09;74.37;;;40.17;;
23270;SDS011;11804;51.118;17.058;2023-04-06T03:14:37;68.60;;;39.67;;
23270;SDS011;11804;51.118;17.058;2023-04-06T03:17:04;74.23;;;42.23;;
23270;SDS011;11804;51.118;17.058;2023-04-06T03:19:32;72.20;;;41.83;;
23270;SDS011;11804;51.118;17.058;2023-04-06T03:21:59;72.43;;;42.87;;
23270;SDS011;11804;51.118;17.058;2023-04-06T03:24:27;73.47;;;41.57;;
23270;SDS011;11804;51.118;17.058;2023-04-06T03:26:55;72.40;;;42.90;;
23270;SDS011;11804;51.118;17.058;2023-04-06T03:29:22;74.57;;;43.13;;
23270;SDS011;11804;51.118;17.058;2023-04-06T03:31:50;75.97;;;43.70;;
23270;SDS011;11804;51.118;17.058;2023-04-06T03:34:17;78.23;;;42.80;;
23270;SDS011;11804;51.118;17.058;2023-04-06T03:36:46;73.57;;;42.97;;
23270;SDS011;11804;51.118;17.058;2023-04-06T03:39:13;75.20;;;42.47;;
23270;SDS011;11804;51.118;17.058;2023-04-06T03:41:41;76.57;;;42.40;;
23270;SDS011;11804;51.118;17.058;2023-04-06T03:44:10;84.00;;;43.10;;
23270;SDS011;11804;51.118;17.058;2023-04-06T03:46:37;77.20;;;43.20;;
23270;SDS011;11804;51.118;17.058;2023-04-06T03:49:05;74.03;;;43.20;;
23270;SDS011;11804;51.118;17.058;2023-04-06T03:51:33;71.13;;;41.87;;
23270;SDS011;11804;51.118;17.058;2023-04-06T03:54:01;75.00;;;41.40;;
23270;SDS011;11804;51.118;17.058;2023-04-06T03:56:30;72.70;;;41.43;;
23270;SDS011;11804;51.118;17.058;2023-04-06T03:58:58;77.63;;;42.67;;
23270;SDS011;11804;51.118;17.058;2023-04-06T04:01:25;75.87;;;43.27;;
23270;SDS011;11804;51.118;17.058;2023-04-06T04:03:53;74.80;;;42.33;;
23270;SDS011;11804;51.118;17.058;2023-04-06T04:06:21;72.63;;;41.83;;
23270;SDS011;11804;51.118;17.058;2023-04-06T04:08:48;72.43;;;42.03;;
23270;SDS011;11804;51.118;17.058;2023-04-06T04:11:16;76.83;;;42.97;;
23270;SDS011;11804;51.118;17.058;2023-04-06T04:13:44;79.33;;;42.77;;
23270;SDS011;11804;51.118;17.058;2023-04-06T04:16:11;74.53;;;43.07;;
23270;SDS011;11804;51.118;17.058;2023-04-06T04:18:39;77.13;;;41.63;;
23270;SDS011;11804;51.118;17.058;2023-04-06T04:21:08;71.60;;;42.23;;
23270;SDS011;11804;51.118;17.058;2023-04-06T04:23:35;78.00;;;43.47;;
23270;SDS011;11804;51.118;17.058;2023-04-06T04:26:03;91.27;;;44.67;;
23270;SDS011;11804;51.118;17.058;2023-04-06T04:28:31;81.67;;;43.10;;
23270;SDS011;11804;51.118;17.058;2023-04-06T04:30:59;74.83;;;43.20;;
23270;SDS011;11804;51.118;17.058;2023-04-06T04:33:26;73.20;;;42.60;;
23270;SDS011;11804;51.118;17.058;2023-04-06T04:35:54;78.70;;;44.00;;
23270;SDS011;11804;51.118;17.058;2023-04-06T04:38:21;76.53;;;41.83;;
23270;SDS011;11804;51.118;17.058;2023-04-06T04:40:49;73.07;;;41.87;;
23270;SDS011;11804;51.118;17.058;2023-04-06T04:43:17;75.90;;;42.10;;
23270;SDS011;11804;51.118;17.058;2023-04-06T04:45:44;76.33;;;42.97;;
23270;SDS011;11804;51.118;17.058;2023-04-06T04:48:12;81.07;;;42.33;;
23270;SDS011;11804;51.118;17.058;2023-04-06T04:50:39;77.30;;;43.57;;
23270;SDS011;11804;51.118;17.058;2023-04-06T04:53:07;79.57;;;43.37;;
23270;SDS011;11804;51.118;17.058;2023-04-06T04:55:34;82.27;;;41.87;;
23270;SDS011;11804;51.118;17.058;2023-04-06T04:58:02;70.27;;;40.50;;
23270;SDS011;11804;51.118;17.058;2023-04-06T05:00:30;76.50;;;42.50;;
23270;SDS011;11804;51.118;17.058;2023-04-06T05:02:57;76.27;;;40.40;;
23270;SDS011;11804;51.118;17.058;2023-04-06T05:05:25;81.27;;;41.47;;
23270;SDS011;11804;51.118;17.058;2023-04-06T05:07:53;69.57;;;39.17;;
23270;SDS011;11804;51.118;17.058;2023-04-06T05:10:20;76.93;;;41.43;;
23270;SDS011;11804;51.118;17.058;2023-04-06T05:12:48;71.27;;;39.47;;
23270;SDS011;11804;51.118;17.058;2023-04-06T05:15:17;80.33;;;39.10;;
23270;SDS011;11804;51.118;17.058;2023-04-06T05:17:46;65.87;;;38.23;;
23270;SDS011;11804;51.118;17.058;2023-04-06T05:20:13;72.37;;;41.40;;
23270;SDS011;11804;51.118;17.058;2023-04-06T05:22:41;67.70;;;38.57;;
23270;SDS011;11804;51.118;17.058;2023-04-06T05:25:09;66.33;;;38.23;;
23270;SDS011;11804;51.118;17.058;2023-04-06T05:27:36;68.43;;;38.63;;
23270;SDS011;11804;51.118;17.058;2023-04-06T05:30:05;66.93;;;40.37;;
23270;SDS011;11804;51.118;17.058;2023-04-06T05:32:33;70.73;;;38.73;;
23270;SDS011;11804;51.118;17.058;2023-04-06T05:35:01;69.17;;;38.30;;
23270;SDS011;11804;51.118;17.058;2023-04-06T05:37:29;60.37;;;36.07;;
23270;SDS011;11804;51.118;17.058;2023-04-06T05:39:56;56.87;;;34.30;;
23270;SDS011;11804;51.118;17.058;2023-04-06T05:42:23;61.30;;;34.03;;
23270;SDS011;11804;51.118;17.058;2023-04-06T05:44:52;55.63;;;33.87;;
23270;SDS011;11804;51.118;17.058;2023-04-06T05:47:22;62.67;;;33.07;;
23270;SDS011;11804;51.118;17.058;2023-04-06T05:49:50;56.03;;;32.90;;
23270;SDS011;11804;51.118;17.058;2023-04-06T05:52:18;62.10;;;33.93;;
23270;SDS011;11804;51.118;17.058;2023-04-06T05:54:45;55.37;;;34.17;;
23270;SDS011;11804;51.118;17.058;2023-04-06T05:57:13;55.10;;;35.00;;
23270;SDS011;11804;51.118;17.058;2023-04-06T05:59:42;54.43;;;32.77;;
23270;SDS011;11804;51.118;17.058;2023-04-06T06:02:10;57.93;;;34.37;;
23270;SDS011;11804;51.118;17.058;2023-04-06T06:04:37;51.27;;;32.40;;
23270;SDS011;11804;51.118;17.058;2023-04-06T06:07:05;54.20;;;33.07;;
23270;SDS011;11804;51.118;17.058;2023-04-06T06:09:33;50.73;;;29.63;;
23270;SDS011;11804;51.118;17.058;2023-04-06T06:12:00;55.43;;;32.87;;
23270;SDS011;11804;51.118;17.058;2023-04-06T06:14:28;54.83;;;32.17;;
23270;SDS011;11804;51.118;17.058;2023-04-06T06:16:56;46.77;;;31.00;;
23270;SDS011;11804;51.118;17.058;2023-04-06T06:19:24;46.93;;;30.73;;
23270;SDS011;11804;51.118;17.058;2023-04-06T06:21:52;46.60;;;29.90;;
23270;SDS011;11804;51.118;17.058;2023-04-06T06:24:24;44.03;;;29.00;;
23270;SDS011;11804;51.118;17.058;2023-04-06T06:26:51;49.87;;;29.07;;
23270;SDS011;11804;51.118;17.058;2023-04-06T06:29:19;50.00;;;30.27;;
23270;SDS011;11804;51.118;17.058;2023-04-06T06:31:47;49.90;;;29.20;;
23270;SDS011;11804;51.118;17.058;2023-04-06T06:34:14;48.70;;;32.60;;
23270;SDS011;11804;51.118;17.058;2023-04-06T06:36:42;48.30;;;31.47;;
23270;SDS011;11804;51.118;17.058;2023-04-06T06:39:09;70.03;;;43.10;;
23270;SDS011;11804;51.118;17.058;2023-04-06T06:41:37;50.57;;;32.90;;
23270;SDS011;11804;51.118;17.058;2023-04-06T06:44:05;51.23;;;32.80;;
23270;SDS011;11804;51.118;17.058;2023-04-06T06:46:32;44.00;;;30.70;;
23270;SDS011;11804;51.118;17.058;2023-04-06T06:49:00;44.07;;;29.70;;
23270;SDS011;11804;51.118;17.058;2023-04-06T06:51:28;41.10;;;28.27;;
23270;SDS011;11804;51.118;17.058;2023-04-06T06:53:56;72.80;;;49.90;;
23270;SDS011;11804;51.118;17.058;2023-04-06T06:56:24;43.80;;;31.17;;
23270;SDS011;11804;51.118;17.058;2023-04-06T06:58:53;45.90;;;28.60;;
23270;SDS011;11804;51.118;17.058;2023-04-06T07:01:21;47.83;;;28.50;;
23270;SDS011;11804;51.118;17.058;2023-04-06T07:03:48;43.00;;;28.47;;
23270;SDS011;11804;51.118;17.058;2023-04-06T07:06:16;38.73;;;27.87;;
23270;SDS011;11804;51.118;17.058;2023-04-06T07:08:43;38.90;;;26.97;;
23270;SDS011;11804;51.118;17.058;2023-04-06T07:11:11;38.57;;;27.37;;
23270;SDS011;11804;51.118;17.058;2023-04-06T07:13:39;40.17;;;28.07;;
23270;SDS011;11804;51.118;17.058;2023-04-06T07:16:06;38.50;;;27.10;;
23270;SDS011;11804;51.118;17.058;2023-04-06T07:18:34;39.27;;;26.83;;
23270;SDS011;11804;51.118;17.058;2023-04-06T07:21:02;42.27;;;28.90;;
23270;SDS011;11804;51.118;17.058;2023-04-06T07:23:30;45.47;;;28.57;;
23270;SDS011;11804;51.118;17.058;2023-04-06T07:25:58;41.75;;;27.77;;
23270;SDS011;11804;51.118;17.058;2023-04-06T07:28:26;44.10;;;29.60;;
23270;SDS011;11804;51.118;17.058;2023-04-06T07:30:53;45.30;;;31.00;;
23270;SDS011;11804;51.118;17.058;2023-04-06T07:33:21;43.57;;;30.00;;
23270;SDS011;11804;51.118;17.058;2023-04-06T07:35:48;51.65;;;29.45;;
23270;SDS011;11804;51.118;17.058;2023-04-06T07:38:17;34.08;;;22.90;;
23270;SDS011;11804;51.118;17.058;2023-04-06T07:40:45;33.70;;;23.47;;
23270;SDS011;11804;51.118;17.058;2023-04-06T07:43:12;34.80;;;23.80;;
23270;SDS011;11804;51.118;17.058;2023-04-06T07:45:40;33.57;;;23.20;;
23270;SDS011;11804;51.118;17.058;2023-04-06T07:48:07;31.87;;;19.03;;
23270;SDS011;11804;51.118;17.058;2023-04-06T07:50:35;24.17;;;17.70;;
23270;SDS011;11804;51.118;17.058;2023-04-06T07:53:03;25.50;;;18.17;;
23270;SDS011;11804;51.118;17.058;2023-04-06T07:55:31;33.67;;;19.87;;
23270;SDS011;11804;51.118;17.058;2023-04-06T07:57:59;37.73;;;20.53;;
23270;SDS011;11804;51.118;17.058;2023-04-06T08:00:26;30.47;;;19.20;;
23270;SDS011;11804;51.118;17.058;2023-04-06T08:02:54;27.23;;;17.23;;
23270;SDS011;11804;51.118;17.058;2023-04-06T08:05:22;18.40;;;13.67;;
23270;SDS011;11804;51.118;17.058;2023-04-06T08:07:49;23.27;;;13.17;;
23270;SDS011;11804;51.118;17.058;2023-04-06T08:10:17;21.07;;;14.60;;
23270;SDS011;11804;51.118;17.058;2023-04-06T08:12:45;25.40;;;16.30;;
23270;SDS011;11804;51.118;17.058;2023-04-06T08:15:12;26.63;;;17.80;;
23270;SDS011;11804;51.118;17.058;2023-04-06T08:17:40;26.30;;;17.53;;
23270;SDS011;11804;51.118;17.058;2023-04-06T08:20:08;22.33;;;14.17;;
23270;SDS011;11804;51.118;17.058;2023-04-06T08:22:36;23.33;;;15.67;;
23270;SDS011;11804;51.118;17.058;2023-04-06T08:25:04;25.53;;;13.20;;
23270;SDS011;11804;51.118;17.058;2023-04-06T08:27:32;21.80;;;13.93;;
23270;SDS011;11804;51.118;17.058;2023-04-06T08:30:00;20.13;;;12.40;;
23270;SDS011;11804;51.118;17.058;2023-04-06T08:32:28;13.23;;;10.63;;
23270;SDS011;11804;51.118;17.058;2023-04-06T08:34:55;15.87;;;11.63;;
23270;SDS011;11804;51.118;17.058;2023-04-06T08:37:23;16.77;;;11.80;;
23270;SDS011;11804;51.118;17.058;2023-04-06T08:39:51;16.03;;;11.40;;
23270;SDS011;11804;51.118;17.058;2023-04-06T08:42:19;15.90;;;11.20;;
23270;SDS011;11804;51.118;17.058;2023-04-06T08:44:48;18.43;;;11.83;;
23270;SDS011;11804;51.118;17.058;2023-04-06T08:47:20;16.27;;;11.60;;
23270;SDS011;11804;51.118;17.058;2023-04-06T08:49:48;17.17;;;12.47;;
23270;SDS011;11804;51.118;17.058;2023-04-06T08:52:17;16.83;;;12.07;;
23270;SDS011;11804;51.118;17.058;2023-04-06T08:54:46;17.87;;;11.37;;
23270;SDS011;11804;51.118;17.058;2023-04-06T08:57:14;16.90;;;11.70;;
23270;SDS011;11804;51.118;17.058;2023-04-06T08:59:43;18.30;;;12.33;;
23270;SDS011;11804;51.118;17.058;2023-04-06T09:02:13;20.23;;;11.97;;
23270;SDS011;11804;51.118;17.058;2023-04-06T09:04:43;17.47;;;11.87;;
23270;SDS011;11804;51.118;17.058;2023-04-06T09:07:13;14.37;;;9.90;;
23270;SDS011;11804;51.118;17.058;2023-04-06T09:09:42;20.90;;;11.17;;
23270;SDS011;11804;51.118;17.058;2023-04-06T09:12:11;16.37;;;11.23;;
23270;SDS011;11804;51.118;17.058;2023-04-06T09:14:58;15.33;;;9.90;;
23270;SDS011;11804;51.118;17.058;2023-04-06T09:17:27;23.50;;;10.97;;
23270;SDS011;11804;51.118;17.058;2023-04-06T09:19:59;13.93;;;9.80;;
23270;SDS011;11804;51.118;17.058;2023-04-06T09:22:35;13.47;;;10.07;;
23270;SDS011;11804;51.118;17.058;2023-04-06T09:25:04;16.57;;;9.97;;
23270;SDS011;11804;51.118;17.058;2023-04-06T09:27:33;15.37;;;9.83;;
23270;SDS011;11804;51.118;17.058;2023-04-06T09:30:07;17.47;;;10.00;;
23270;SDS011;11804;51.118;17.058;2023-04-06T09:35:16;13.43;;;8.40;;
23270;SDS011;11804;51.118;17.058;2023-04-06T09:37:47;9.00;;;7.13;;
23270;SDS011;11804;51.118;17.058;2023-04-06T09:40:18;9.80;;;6.70;;
23270;SDS011;11804;51.118;17.058;2023-04-06T09:42:48;11.88;;;7.72;;
23270;SDS011;11804;51.118;17.058;2023-04-06T09:45:18;12.47;;;7.17;;
23270;SDS011;11804;51.118;17.058;2023-04-06T09:47:46;13.00;;;7.70;;
23270;SDS011;11804;51.118;17.058;2023-04-06T09:50:16;14.80;;;7.50;;
23270;SDS011;11804;51.118;17.058;2023-04-06T09:52:49;9.83;;;7.33;;
23270;SDS011;11804;51.118;17.058;2023-04-06T09:55:34;11.57;;;8.40;;
23270;SDS011;11804;51.118;17.058;2023-04-06T09:57:58;14.83;;;9.20;;
23270;SDS011;11804;51.118;17.058;2023-04-06T10:00:39;11.40;;;8.27;;
23270;SDS011;11804;51.118;17.058;2023-04-06T10:03:09;20.13;;;11.70;;
23270;SDS011;11804;51.118;17.058;2023-04-06T10:08:14;12.17;;;8.43;;
23270;SDS011;11804;51.118;17.058;2023-04-06T10:10:43;13.30;;;8.90;;
23270;SDS011;11804;51.118;17.058;2023-04-06T10:13:11;13.47;;;8.10;;
23270;SDS011;11804;51.118;17.058;2023-04-06T10:15:39;13.40;;;9.60;;
23270;SDS011;11804;51.118;17.058;2023-04-06T10:18:07;14.63;;;8.60;;
23270;SDS011;11804;51.118;17.058;2023-04-06T10:20:55;15.03;;;8.17;;
23270;SDS011;11804;51.118;17.058;2023-04-06T10:23:52;11.87;;;7.63;;
23270;SDS011;11804;51.118;17.058;2023-04-06T10:26:22;11.93;;;7.80;;
23270;SDS011;11804;51.118;17.058;2023-04-06T10:28:49;13.73;;;7.93;;
23270;SDS011;11804;51.118;17.058;2023-04-06T10:31:24;16.80;;;10.93;;
23270;SDS011;11804;51.118;17.058;2023-04-06T10:33:57;13.77;;;7.73;;
23270;SDS011;11804;51.118;17.058;2023-04-06T10:36:27;9.50;;;7.03;;
23270;SDS011;11804;51.118;17.058;2023-04-06T10:38:57;7.80;;;6.37;;
23270;SDS011;11804;51.118;17.058;2023-04-06T10:41:36;10.03;;;6.40;;
23270;SDS011;11804;51.118;17.058;2023-04-06T10:44:16;17.87;;;8.80;;
23270;SDS011;11804;51.118;17.058;2023-04-06T10:46:54;13.33;;;7.00;;
23270;SDS011;11804;51.118;17.058;2023-04-06T10:49:25;11.63;;;5.87;;
23270;SDS011;11804;51.118;17.058;2023-04-06T10:51:53;8.90;;;6.10;;
23270;SDS011;11804;51.118;17.058;2023-04-06T10:54:25;15.20;;;8.53;;
23270;SDS011;11804;51.118;17.058;2023-04-06T10:56:54;13.23;;;7.63;;
23270;SDS011;11804;51.118;17.058;2023-04-06T10:59:22;9.87;;;7.33;;
23270;SDS011;11804;51.118;17.058;2023-04-06T11:01:51;12.40;;;6.83;;
23270;SDS011;11804;51.118;17.058;2023-04-06T11:04:20;15.57;;;6.10;;
23270;SDS011;11804;51.118;17.058;2023-04-06T11:06:49;11.57;;;7.00;;
23270;SDS011;11804;51.118;17.058;2023-04-06T11:09:27;13.03;;;7.63;;
23270;SDS011;11804;51.118;17.058;2023-04-06T11:11:57;11.27;;;7.50;;
23270;SDS011;11804;51.118;17.058;2023-04-06T11:14:26;15.17;;;7.53;;
23270;SDS011;11804;51.118;17.058;2023-04-06T11:16:54;12.93;;;7.17;;
23270;SDS011;11804;51.118;17.058;2023-04-06T11:19:21;14.70;;;6.97;;
23270;SDS011;11804;51.118;17.058;2023-04-06T11:21:49;10.73;;;7.20;;
23270;SDS011;11804;51.118;17.058;2023-04-06T11:24:20;9.83;;;6.80;;
23270;SDS011;11804;51.118;17.058;2023-04-06T11:26:54;13.77;;;7.47;;
23270;SDS011;11804;51.118;17.058;2023-04-06T11:29:25;14.50;;;7.07;;
23270;SDS011;11804;51.118;17.058;2023-04-06T11:31:59;13.90;;;7.17;;
23270;SDS011;11804;51.118;17.058;2023-04-06T11:34:29;12.60;;;7.33;;
23270;SDS011;11804;51.118;17.058;2023-04-06T11:36:59;10.07;;;6.93;;
23270;SDS011;11804;51.118;17.058;2023-04-06T11:39:30;13.27;;;8.43;;
23270;SDS011;11804;51.118;17.058;2023-04-06T11:41:59;12.07;;;7.63;;
23270;SDS011;11804;51.118;17.058;2023-04-06T11:44:34;14.27;;;7.50;;
23270;SDS011;11804;51.118;17.058;2023-04-06T11:47:06;11.13;;;7.80;;
23270;SDS011;11804;51.118;17.058;2023-04-06T11:49:39;10.13;;;7.63;;
23270;SDS011;11804;51.118;17.058;2023-04-06T11:52:14;15.13;;;9.10;;
23270;SDS011;11804;51.118;17.058;2023-04-06T11:54:45;18.60;;;8.77;;
23270;SDS011;11804;51.118;17.058;2023-04-06T11:57:15;16.10;;;8.27;;
23270;SDS011;11804;51.118;17.058;2023-04-06T11:59:43;12.77;;;8.00;;
23270;SDS011;11804;51.118;17.058;2023-04-06T12:02:12;13.13;;;7.63;;
23270;SDS011;11804;51.118;17.058;2023-04-06T12:04:39;11.93;;;8.30;;
23270;SDS011;11804;51.118;17.058;2023-04-06T12:07:07;13.03;;;9.07;;
23270;SDS011;11804;51.118;17.058;2023-04-06T12:09:34;13.57;;;9.20;;
23270;SDS011;11804;51.118;17.058;2023-04-06T12:12:02;16.80;;;10.27;;
23270;SDS011;11804;51.118;17.058;2023-04-06T12:14:30;15.37;;;10.20;;
23270;SDS011;11804;51.118;17.058;2023-04-06T12:16:58;13.20;;;9.47;;
23270;SDS011;11804;51.118;17.058;2023-04-06T12:19:26;15.67;;;9.70;;
23270;SDS011;11804;51.118;17.058;2023-04-06T12:21:54;17.73;;;11.20;;
23270;SDS011;11804;51.118;17.058;2023-04-06T12:24:23;12.03;;;8.63;;
23270;SDS011;11804;51.118;17.058;2023-04-06T12:26:51;13.70;;;9.83;;
23270;SDS011;11804;51.118;17.058;2023-04-06T12:29:19;14.60;;;9.73;;
23270;SDS011;11804;51.118;17.058;2023-04-06T12:31:47;12.67;;;9.60;;
23270;SDS011;11804;51.118;17.058;2023-04-06T12:34:14;15.77;;;9.87;;
23270;SDS011;11804;51.118;17.058;2023-04-06T12:36:42;18.87;;;9.97;;
23270;SDS011;11804;51.118;17.058;2023-04-06T12:39:10;17.53;;;9.70;;
23270;SDS011;11804;51.118;17.058;2023-04-06T12:41:37;12.73;;;9.40;;
23270;SDS011;11804;51.118;17.058;2023-04-06T12:44:07;15.50;;;9.60;;
23270;SDS011;11804;51.118;17.058;2023-04-06T12:46:35;11.90;;;8.80;;
23270;SDS011;11804;51.118;17.058;2023-04-06T12:49:02;15.60;;;9.90;;
23270;SDS011;11804;51.118;17.058;2023-04-06T12:51:30;16.00;;;9.70;;
23270;SDS011;11804;51.118;17.058;2023-04-06T12:53:57;17.67;;;9.10;;
23270;SDS011;11804;51.118;17.058;2023-04-06T12:56:25;14.43;;;8.00;;
23270;SDS011;11804;51.118;17.058;2023-04-06T12:58:53;12.43;;;7.77;;
23270;SDS011;11804;51.118;17.058;2023-04-06T13:01:22;12.00;;;7.73;;
23270;SDS011;11804;51.118;17.058;2023-04-06T13:03:51;12.53;;;7.67;;
23270;SDS011;11804;51.118;17.058;2023-04-06T13:06:20;13.30;;;7.00;;
23270;SDS011;11804;51.118;17.058;2023-04-06T13:08:47;9.83;;;7.17;;
23270;SDS011;11804;51.118;17.058;2023-04-06T13:11:15;10.33;;;6.20;;
23270;SDS011;11804;51.118;17.058;2023-04-06T13:13:45;9.60;;;7.37;;
23270;SDS011;11804;51.118;17.058;2023-04-06T13:16:12;15.13;;;8.13;;
23270;SDS011;11804;51.118;17.058;2023-04-06T13:18:41;13.93;;;7.30;;
23270;SDS011;11804;51.118;17.058;2023-04-06T13:21:13;12.80;;;8.10;;
23270;SDS011;11804;51.118;17.058;2023-04-06T13:23:42;13.00;;;7.77;;
23270;SDS011;11804;51.118;17.058;2023-04-06T13:26:10;12.80;;;6.87;;
23270;SDS011;11804;51.118;17.058;2023-04-06T13:28:39;15.07;;;7.47;;
23270;SDS011;11804;51.118;17.058;2023-04-06T13:31:06;9.87;;;6.67;;
23270;SDS011;11804;51.118;17.058;2023-04-06T13:33:35;12.57;;;6.87;;
23270;SDS011;11804;51.118;17.058;2023-04-06T13:36:04;16.63;;;6.37;;
23270;SDS011;11804;51.118;17.058;2023-04-06T13:38:33;10.63;;;6.93;;
23270;SDS011;11804;51.118;17.058;2023-04-06T13:41:03;8.67;;;6.40;;
23270;SDS011;11804;51.118;17.058;2023-04-06T13:43:31;11.60;;;7.03;;
23270;SDS011;11804;51.118;17.058;2023-04-06T13:45:59;10.40;;;6.90;;
23270;SDS011;11804;51.118;17.058;2023-04-06T13:48:27;10.33;;;7.60;;
23270;SDS011;11804;51.118;17.058;2023-04-06T13:50:54;11.23;;;7.30;;
23270;SDS011;11804;51.118;17.058;2023-04-06T13:53:22;11.33;;;7.20;;
23270;SDS011;11804;51.118;17.058;2023-04-06T13:55:53;15.07;;;7.77;;
23270;SDS011;11804;51.118;17.058;2023-04-06T13:58:21;16.33;;;9.17;;
23270;SDS011;11804;51.118;17.058;2023-04-06T14:00:49;12.07;;;7.97;;
23270;SDS011;11804;51.118;17.058;2023-04-06T14:03:18;11.37;;;8.20;;
23270;SDS011;11804;51.118;17.058;2023-04-06T14:05:48;15.97;;;8.03;;
23270;SDS011;11804;51.118;17.058;2023-04-06T14:08:17;10.90;;;7.97;;
23270;SDS011;11804;51.118;17.058;2023-04-06T14:10:44;11.97;;;8.10;;
23270;SDS011;11804;51.118;17.058;2023-04-06T14:13:12;13.70;;;8.10;;
23270;SDS011;11804;51.118;17.058;2023-04-06T14:15:39;13.03;;;8.70;;
23270;SDS011;11804;51.118;17.058;2023-04-06T14:18:08;20.33;;;11.07;;
23270;SDS011;11804;51.118;17.058;2023-04-06T14:20:36;15.07;;;10.23;;
23270;SDS011;11804;51.118;17.058;2023-04-06T14:23:03;13.00;;;8.43;;
23270;SDS011;11804;51.118;17.058;2023-04-06T14:25:31;10.80;;;8.13;;
23270;SDS011;11804;51.118;17.058;2023-04-06T14:28:00;10.13;;;7.37;;